sensor_id;sensor_type;location;lat;lon;timestamp;P1;durP1;ratioP1;P2;durP2;ratioP2
1765;SDS011;880;52.452;8.656;2022-09-06T00:00:23;8.73;;;7.80;;
1765;SDS011;880;52.452;8.656;2022-09-06T00:02:51;8.13;;;7.40;;
1765;SDS011;880;52.452;8.656;2022-09-06T00:05:19;7.93;;;7.43;;
1765;SDS011;880;52.452;8.656;2022-09-06T00:07:46;8.80;;;8.10;;
1765;SDS011;880;52.452;8.656;2022-09-06T00:10:14;9.00;;;8.30;;
1765;SDS011;880;52.452;8.656;2022-09-06T00:12:41;7.83;;;7.33;;
1765;SDS011;880;52.452;8.656;2022-09-06T00:15:08;7.73;;;7.20;;
1765;SDS011;880;52.452;8.656;2022-09-06T00:17:35;8.23;;;7.47;;
1765;SDS011;880;52.452;8.656;2022-09-06T00:20:03;8.63;;;7.93;;
1765;SDS011;880;52.452;8.656;2022-09-06T00:22:34;8.80;;;8.20;;
1765;SDS011;880;52.452;8.656;2022-09-06T00:25:03;10.20;;;7.70;;
1765;SDS011;880;52.452;8.656;2022-09-06T00:27:32;9.50;;;8.70;;
1765;SDS011;880;52.452;8.656;2022-09-06T00:30:00;8.23;;;7.60;;
1765;SDS011;880;52.452;8.656;2022-09-06T00:32:30;8.80;;;8.20;;
1765;SDS011;880;52.452;8.656;2022-09-06T00:34:57;8.70;;;8.07;;
1765;SDS011;880;52.452;8.656;2022-09-06T00:37:24;8.57;;;7.97;;
1765;SDS011;880;52.452;8.656;2022-09-06T00:39:52;9.47;;;8.50;;
1765;SDS011;880;52.452;8.656;2022-09-06T00:42:19;8.70;;;8.00;;
1765;SDS011;880;52.452;8.656;2022-09-06T00:44:46;9.50;;;8.90;;
1765;SDS011;880;52.452;8.656;2022-09-06T00:47:15;8.83;;;8.00;;
1765;SDS011;880;52.452;8.656;2022-09-06T00:49:46;9.70;;;8.90;;
1765;SDS011;880;52.452;8.656;2022-09-06T00:52:17;9.80;;;9.00;;
1765;SDS011;880;52.452;8.656;2022-09-06T00:54:46;10.27;;;9.30;;
1765;SDS011;880;52.452;8.656;2022-09-06T00:57:15;9.27;;;8.67;;
1765;SDS011;880;52.452;8.656;2022-09-06T00:59:44;9.77;;;9.00;;
1765;SDS011;880;52.452;8.656;2022-09-06T01:02:13;9.90;;;9.10;;
1765;SDS011;880;52.452;8.656;2022-09-06T01:04:40;10.47;;;9.57;;
1765;SDS011;880;52.452;8.656;2022-09-06T01:10:24;12.47;;;10.33;;
1765;SDS011;880;52.452;8.656;2022-09-06T01:16:29;10.10;;;9.30;;
1765;SDS011;880;52.452;8.656;2022-09-06T01:30:13;11.33;;;10.43;;
1765;SDS011;880;52.452;8.656;2022-09-06T01:35:31;11.30;;;10.37;;
1765;SDS011;880;52.452;8.656;2022-09-06T01:38:05;12.23;;;11.30;;
1765;SDS011;880;52.452;8.656;2022-09-06T01:40:33;11.50;;;10.60;;
1765;SDS011;880;52.452;8.656;2022-09-06T01:43:05;11.80;;;10.90;;
1765;SDS011;880;52.452;8.656;2022-09-06T01:48:42;12.63;;;11.73;;
1765;SDS011;880;52.452;8.656;2022-09-06T01:54:27;12.47;;;11.47;;
1765;SDS011;880;52.452;8.656;2022-09-06T01:57:17;11.37;;;10.63;;
1765;SDS011;880;52.452;8.656;2022-09-06T02:00:16;12.20;;;11.30;;
1765;SDS011;880;52.452;8.656;2022-09-06T02:08:36;12.00;;;11.00;;
1765;SDS011;880;52.452;8.656;2022-09-06T02:11:09;12.40;;;11.50;;
1765;SDS011;880;52.452;8.656;2022-09-06T02:13:43;11.60;;;10.70;;
1765;SDS011;880;52.452;8.656;2022-09-06T02:16:20;13.00;;;11.90;;
1765;SDS011;880;52.452;8.656;2022-09-06T02:18:53;13.50;;;12.40;;
1765;SDS011;880;52.452;8.656;2022-09-06T02:21:38;13.20;;;11.50;;
1765;SDS011;880;52.452;8.656;2022-09-06T02:24:09;12.70;;;11.70;;
1765;SDS011;880;52.452;8.656;2022-09-06T02:26:43;13.70;;;12.47;;
1765;SDS011;880;52.452;8.656;2022-09-06T02:29:13;12.90;;;12.00;;
1765;SDS011;880;52.452;8.656;2022-09-06T02:31:43;13.77;;;12.50;;
1765;SDS011;880;52.452;8.656;2022-09-06T02:34:16;12.23;;;11.20;;
1765;SDS011;880;52.452;8.656;2022-09-06T02:36:45;12.27;;;11.37;;
1765;SDS011;880;52.452;8.656;2022-09-06T02:39:13;12.47;;;11.43;;
1765;SDS011;880;52.452;8.656;2022-09-06T02:41:40;12.97;;;12.07;;
1765;SDS011;880;52.452;8.656;2022-09-06T02:44:09;13.30;;;12.20;;
1765;SDS011;880;52.452;8.656;2022-09-06T02:46:36;14.63;;;13.60;;
1765;SDS011;880;52.452;8.656;2022-09-06T02:49:04;13.40;;;12.30;;
1765;SDS011;880;52.452;8.656;2022-09-06T02:51:35;13.43;;;12.30;;
1765;SDS011;880;52.452;8.656;2022-09-06T02:54:04;13.90;;;12.80;;
1765;SDS011;880;52.452;8.656;2022-09-06T02:56:32;13.03;;;12.03;;
1765;SDS011;880;52.452;8.656;2022-09-06T02:59:02;14.10;;;13.00;;
1765;SDS011;880;52.452;8.656;2022-09-06T03:01:31;14.00;;;13.00;;
1765;SDS011;880;52.452;8.656;2022-09-06T03:03:59;14.20;;;13.10;;
1765;SDS011;880;52.452;8.656;2022-09-06T03:06:26;13.77;;;12.60;;
1765;SDS011;880;52.452;8.656;2022-09-06T03:08:53;13.40;;;12.30;;
1765;SDS011;880;52.452;8.656;2022-09-06T03:11:20;13.30;;;12.10;;
1765;SDS011;880;52.452;8.656;2022-09-06T03:13:48;14.20;;;13.10;;
1765;SDS011;880;52.452;8.656;2022-09-06T03:16:16;13.80;;;12.70;;
1765;SDS011;880;52.452;8.656;2022-09-06T03:18:45;13.90;;;12.90;;
1765;SDS011;880;52.452;8.656;2022-09-06T03:21:12;14.67;;;13.57;;
1765;SDS011;880;52.452;8.656;2022-09-06T03:23:40;13.77;;;12.67;;
1765;SDS011;880;52.452;8.656;2022-09-06T03:26:07;13.47;;;12.33;;
1765;SDS011;880;52.452;8.656;2022-09-06T03:28:34;14.10;;;12.90;;
1765;SDS011;880;52.452;8.656;2022-09-06T03:31:01;14.33;;;13.17;;
1765;SDS011;880;52.452;8.656;2022-09-06T03:33:29;13.33;;;12.23;;
1765;SDS011;880;52.452;8.656;2022-09-06T03:35:57;14.10;;;12.77;;
1765;SDS011;880;52.452;8.656;2022-09-06T03:38:28;13.80;;;12.50;;
1765;SDS011;880;52.452;8.656;2022-09-06T03:40:56;14.03;;;12.90;;
1765;SDS011;880;52.452;8.656;2022-09-06T03:43:24;14.10;;;12.80;;
1765;SDS011;880;52.452;8.656;2022-09-06T03:45:53;13.90;;;12.73;;
1765;SDS011;880;52.452;8.656;2022-09-06T03:48:26;14.17;;;13.10;;
1765;SDS011;880;52.452;8.656;2022-09-06T03:50:55;14.50;;;13.33;;
1765;SDS011;880;52.452;8.656;2022-09-06T03:53:24;14.33;;;13.17;;
1765;SDS011;880;52.452;8.656;2022-09-06T03:55:54;14.50;;;13.40;;
1765;SDS011;880;52.452;8.656;2022-09-06T03:58:23;14.57;;;13.40;;
1765;SDS011;880;52.452;8.656;2022-09-06T04:00:59;14.20;;;13.10;;
1765;SDS011;880;52.452;8.656;2022-09-06T04:03:32;14.33;;;13.23;;
1765;SDS011;880;52.452;8.656;2022-09-06T04:06:00;15.07;;;13.87;;
1765;SDS011;880;52.452;8.656;2022-09-06T04:08:28;14.30;;;13.20;;
1765;SDS011;880;52.452;8.656;2022-09-06T04:10:56;14.70;;;13.40;;
1765;SDS011;880;52.452;8.656;2022-09-06T04:13:26;14.77;;;13.57;;
1765;SDS011;880;52.452;8.656;2022-09-06T04:15:54;14.50;;;13.30;;
1765;SDS011;880;52.452;8.656;2022-09-06T04:18:21;14.10;;;13.00;;
1765;SDS011;880;52.452;8.656;2022-09-06T04:20:50;15.33;;;14.17;;
1765;SDS011;880;52.452;8.656;2022-09-06T04:23:19;13.50;;;12.40;;
1765;SDS011;880;52.452;8.656;2022-09-06T04:25:47;14.17;;;12.80;;
1765;SDS011;880;52.452;8.656;2022-09-06T04:28:17;15.25;;;13.95;;
1765;SDS011;880;52.452;8.656;2022-09-06T04:30:50;14.80;;;13.70;;
1765;SDS011;880;52.452;8.656;2022-09-06T04:33:30;14.30;;;13.30;;
1765;SDS011;880;52.452;8.656;2022-09-06T04:36:03;14.20;;;13.17;;
1765;SDS011;880;52.452;8.656;2022-09-06T04:38:38;13.80;;;12.50;;
1765;SDS011;880;52.452;8.656;2022-09-06T04:41:09;14.23;;;13.07;;
1765;SDS011;880;52.452;8.656;2022-09-06T04:43:38;14.50;;;13.37;;
1765;SDS011;880;52.452;8.656;2022-09-06T04:46:08;14.17;;;13.07;;
1765;SDS011;880;52.452;8.656;2022-09-06T04:48:55;13.90;;;12.57;;
1765;SDS011;880;52.452;8.656;2022-09-06T04:51:23;14.13;;;13.07;;
1765;SDS011;880;52.452;8.656;2022-09-06T04:53:51;13.87;;;12.77;;
1765;SDS011;880;52.452;8.656;2022-09-06T04:56:19;12.40;;;11.40;;
1765;SDS011;880;52.452;8.656;2022-09-06T04:58:48;13.17;;;12.27;;
1765;SDS011;880;52.452;8.656;2022-09-06T05:01:17;12.83;;;12.00;;
1765;SDS011;880;52.452;8.656;2022-09-06T05:03:46;13.93;;;12.90;;
1765;SDS011;880;52.452;8.656;2022-09-06T05:06:17;13.20;;;12.00;;
1765;SDS011;880;52.452;8.656;2022-09-06T05:08:49;13.87;;;12.73;;
1765;SDS011;880;52.452;8.656;2022-09-06T05:11:16;13.37;;;12.33;;
1765;SDS011;880;52.452;8.656;2022-09-06T05:13:44;14.83;;;13.33;;
1765;SDS011;880;52.452;8.656;2022-09-06T05:16:13;13.83;;;12.83;;
1765;SDS011;880;52.452;8.656;2022-09-06T05:18:40;12.93;;;11.93;;
1765;SDS011;880;52.452;8.656;2022-09-06T05:21:07;13.17;;;12.00;;
1765;SDS011;880;52.452;8.656;2022-09-06T05:23:35;13.13;;;12.23;;
1765;SDS011;880;52.452;8.656;2022-09-06T05:26:02;12.37;;;11.30;;
1765;SDS011;880;52.452;8.656;2022-09-06T05:28:29;13.77;;;12.40;;
1765;SDS011;880;52.452;8.656;2022-09-06T05:31:06;12.93;;;12.00;;
1765;SDS011;880;52.452;8.656;2022-09-06T05:33:39;12.43;;;11.53;;
1765;SDS011;880;52.452;8.656;2022-09-06T05:36:06;12.67;;;11.47;;
1765;SDS011;880;52.452;8.656;2022-09-06T05:38:33;12.47;;;11.57;;
1765;SDS011;880;52.452;8.656;2022-09-06T05:41:00;12.40;;;11.30;;
1765;SDS011;880;52.452;8.656;2022-09-06T05:43:27;12.80;;;11.50;;
1765;SDS011;880;52.452;8.656;2022-09-06T05:45:55;12.47;;;11.47;;
1765;SDS011;880;52.452;8.656;2022-09-06T05:48:22;11.40;;;10.40;;
1765;SDS011;880;52.452;8.656;2022-09-06T05:51:06;11.70;;;10.80;;
1765;SDS011;880;52.452;8.656;2022-09-06T05:53:39;11.83;;;11.03;;
1765;SDS011;880;52.452;8.656;2022-09-06T05:56:12;12.00;;;11.10;;
1765;SDS011;880;52.452;8.656;2022-09-06T05:58:40;12.70;;;11.50;;
1765;SDS011;880;52.452;8.656;2022-09-06T06:03:42;12.47;;;11.50;;
1765;SDS011;880;52.452;8.656;2022-09-06T06:06:28;12.33;;;11.37;;
1765;SDS011;880;52.452;8.656;2022-09-06T06:09:00;11.53;;;10.43;;
1765;SDS011;880;52.452;8.656;2022-09-06T06:11:28;12.07;;;11.00;;
1765;SDS011;880;52.452;8.656;2022-09-06T06:13:56;12.93;;;11.80;;
1765;SDS011;880;52.452;8.656;2022-09-06T06:16:24;11.40;;;10.60;;
1765;SDS011;880;52.452;8.656;2022-09-06T06:18:51;11.53;;;10.63;;
1765;SDS011;880;52.452;8.656;2022-09-06T06:21:22;11.97;;;11.03;;
1765;SDS011;880;52.452;8.656;2022-09-06T06:23:53;12.43;;;11.23;;
1765;SDS011;880;52.452;8.656;2022-09-06T06:26:22;11.63;;;10.70;;
1765;SDS011;880;52.452;8.656;2022-09-06T06:28:50;11.10;;;10.10;;
1765;SDS011;880;52.452;8.656;2022-09-06T06:31:18;11.70;;;10.80;;
1765;SDS011;880;52.452;8.656;2022-09-06T06:33:48;11.40;;;10.27;;
1765;SDS011;880;52.452;8.656;2022-09-06T06:38:47;11.77;;;10.77;;
1765;SDS011;880;52.452;8.656;2022-09-06T06:41:17;11.40;;;10.60;;
1765;SDS011;880;52.452;8.656;2022-09-06T06:43:46;10.80;;;10.00;;
1765;SDS011;880;52.452;8.656;2022-09-06T06:46:15;11.17;;;10.37;;
1765;SDS011;880;52.452;8.656;2022-09-06T06:48:44;11.47;;;10.37;;
1765;SDS011;880;52.452;8.656;2022-09-06T06:51:17;12.27;;;11.17;;
1765;SDS011;880;52.452;8.656;2022-09-06T06:53:45;12.27;;;9.60;;
1765;SDS011;880;52.452;8.656;2022-09-06T06:56:24;13.37;;;10.57;;
1765;SDS011;880;52.452;8.656;2022-09-06T06:58:58;12.10;;;10.90;;
1765;SDS011;880;52.452;8.656;2022-09-06T07:01:30;10.77;;;9.87;;
1765;SDS011;880;52.452;8.656;2022-09-06T07:03:59;10.87;;;10.07;;
1765;SDS011;880;52.452;8.656;2022-09-06T07:06:26;10.93;;;10.13;;
1765;SDS011;880;52.452;8.656;2022-09-06T07:09:14;11.53;;;10.63;;
1765;SDS011;880;52.452;8.656;2022-09-06T07:11:43;13.13;;;11.27;;
1765;SDS011;880;52.452;8.656;2022-09-06T07:14:12;11.60;;;10.40;;
1765;SDS011;880;52.452;8.656;2022-09-06T07:16:39;18.37;;;11.27;;
1765;SDS011;880;52.452;8.656;2022-09-06T07:19:06;16.67;;;10.93;;
1765;SDS011;880;52.452;8.656;2022-09-06T07:21:34;11.50;;;10.50;;
1765;SDS011;880;52.452;8.656;2022-09-06T07:24:06;10.63;;;9.83;;
1765;SDS011;880;52.452;8.656;2022-09-06T07:26:35;10.87;;;10.07;;
1765;SDS011;880;52.452;8.656;2022-09-06T07:29:05;10.50;;;9.57;;
1765;SDS011;880;52.452;8.656;2022-09-06T07:31:33;11.50;;;10.60;;
1765;SDS011;880;52.452;8.656;2022-09-06T07:34:23;10.90;;;9.97;;
1765;SDS011;880;52.452;8.656;2022-09-06T07:36:51;10.83;;;10.13;;
1765;SDS011;880;52.452;8.656;2022-09-06T07:39:22;11.07;;;9.97;;
1765;SDS011;880;52.452;8.656;2022-09-06T07:41:49;12.20;;;11.10;;
1765;SDS011;880;52.452;8.656;2022-09-06T07:44:16;11.30;;;10.50;;
1765;SDS011;880;52.452;8.656;2022-09-06T07:46:44;10.90;;;10.03;;
1765;SDS011;880;52.452;8.656;2022-09-06T07:49:11;13.27;;;11.53;;
1765;SDS011;880;52.452;8.656;2022-09-06T07:51:38;11.40;;;10.50;;
1765;SDS011;880;52.452;8.656;2022-09-06T07:54:05;11.93;;;10.93;;
1765;SDS011;880;52.452;8.656;2022-09-06T07:56:53;12.20;;;11.20;;
1765;SDS011;880;52.452;8.656;2022-09-06T07:59:22;11.30;;;10.50;;
1765;SDS011;880;52.452;8.656;2022-09-06T08:01:49;12.70;;;11.43;;
1765;SDS011;880;52.452;8.656;2022-09-06T08:04:17;13.30;;;12.10;;
1765;SDS011;880;52.452;8.656;2022-09-06T08:06:45;12.40;;;11.20;;
1765;SDS011;880;52.452;8.656;2022-09-06T08:09:34;12.67;;;11.57;;
1765;SDS011;880;52.452;8.656;2022-09-06T08:12:02;11.83;;;10.83;;
1765;SDS011;880;52.452;8.656;2022-09-06T08:14:33;22.53;;;13.50;;
1765;SDS011;880;52.452;8.656;2022-09-06T08:17:03;13.40;;;11.40;;
1765;SDS011;880;52.452;8.656;2022-09-06T08:19:30;17.60;;;11.90;;
1765;SDS011;880;52.452;8.656;2022-09-06T08:21:57;12.37;;;11.17;;
1765;SDS011;880;52.452;8.656;2022-09-06T08:24:24;12.97;;;11.60;;
1765;SDS011;880;52.452;8.656;2022-09-06T08:26:51;13.67;;;12.20;;
1765;SDS011;880;52.452;8.656;2022-09-06T08:29:18;12.60;;;11.53;;
1765;SDS011;880;52.452;8.656;2022-09-06T08:31:46;14.80;;;11.70;;
1765;SDS011;880;52.452;8.656;2022-09-06T08:34:13;14.23;;;11.40;;
1765;SDS011;880;52.452;8.656;2022-09-06T08:36:41;13.40;;;10.97;;
1765;SDS011;880;52.452;8.656;2022-09-06T08:39:09;14.17;;;11.40;;
1765;SDS011;880;52.452;8.656;2022-09-06T08:44:44;12.60;;;11.60;;
1765;SDS011;880;52.452;8.656;2022-09-06T08:47:19;12.80;;;11.80;;
1765;SDS011;880;52.452;8.656;2022-09-06T08:49:48;13.43;;;11.90;;
1765;SDS011;880;52.452;8.656;2022-09-06T08:55:43;13.70;;;11.43;;
1765;SDS011;880;52.452;8.656;2022-09-06T09:01:31;14.20;;;12.90;;
1765;SDS011;880;52.452;8.656;2022-09-06T09:04:48;13.10;;;11.90;;
1765;SDS011;880;52.452;8.656;2022-09-06T09:07:43;13.03;;;11.80;;
1765;SDS011;880;52.452;8.656;2022-09-06T09:11:05;14.40;;;12.00;;
1765;SDS011;880;52.452;8.656;2022-09-06T09:16:16;12.30;;;11.10;;
1765;SDS011;880;52.452;8.656;2022-09-06T09:18:47;13.63;;;12.33;;
1765;SDS011;880;52.452;8.656;2022-09-06T09:21:21;13.10;;;11.90;;
1765;SDS011;880;52.452;8.656;2022-09-06T09:23:56;12.87;;;11.70;;
1765;SDS011;880;52.452;8.656;2022-09-06T09:26:30;13.37;;;12.00;;
1765;SDS011;880;52.452;8.656;2022-09-06T09:29:05;12.33;;;11.33;;
1765;SDS011;880;52.452;8.656;2022-09-06T09:31:39;11.20;;;10.30;;
1765;SDS011;880;52.452;8.656;2022-09-06T09:34:35;11.50;;;9.83;;
1765;SDS011;880;52.452;8.656;2022-09-06T09:37:21;12.23;;;11.23;;
1765;SDS011;880;52.452;8.656;2022-09-06T09:42:53;10.30;;;9.50;;
1765;SDS011;880;52.452;8.656;2022-09-06T09:45:34;12.97;;;10.03;;
1765;SDS011;880;52.452;8.656;2022-09-06T09:48:23;10.27;;;9.27;;
1765;SDS011;880;52.452;8.656;2022-09-06T09:50:53;11.00;;;9.93;;
1765;SDS011;880;52.452;8.656;2022-09-06T09:53:22;10.07;;;9.37;;
1765;SDS011;880;52.452;8.656;2022-09-06T09:55:56;10.30;;;9.50;;
1765;SDS011;880;52.452;8.656;2022-09-06T09:58:31;9.93;;;9.03;;
1765;SDS011;880;52.452;8.656;2022-09-06T10:01:11;10.10;;;9.40;;
1765;SDS011;880;52.452;8.656;2022-09-06T10:03:47;10.63;;;9.83;;
1765;SDS011;880;52.452;8.656;2022-09-06T10:06:35;10.40;;;9.60;;
1765;SDS011;880;52.452;8.656;2022-09-06T10:09:33;9.90;;;9.20;;
1765;SDS011;880;52.452;8.656;2022-09-06T10:12:03;10.67;;;9.87;;
1765;SDS011;880;52.452;8.656;2022-09-06T10:14:32;10.30;;;;;
1765;SDS011;880;52.452;8.656;2022-09-06T10:17:14;11.20;;;9.93;;
1765;SDS011;880;52.452;8.656;2022-09-06T10:19:55;9.93;;;9.13;;
1765;SDS011;880;52.452;8.656;2022-09-06T10:22:55;10.60;;;9.50;;
1765;SDS011;880;52.452;8.656;2022-09-06T10:25:42;11.37;;;10.37;;
1765;SDS011;880;52.452;8.656;2022-09-06T10:28:34;10.87;;;10.07;;
1765;SDS011;880;52.452;8.656;2022-09-06T10:40:04;10.60;;;9.80;;
1765;SDS011;880;52.452;8.656;2022-09-06T10:42:50;10.03;;;9.20;;
1765;SDS011;880;52.452;8.656;2022-09-06T10:45:22;9.50;;;8.70;;
1765;SDS011;880;52.452;8.656;2022-09-06T10:48:07;10.10;;;9.07;;
1765;SDS011;880;52.452;8.656;2022-09-06T10:50:41;9.47;;;8.57;;
1765;SDS011;880;52.452;8.656;2022-09-06T10:53:17;10.13;;;8.53;;
1765;SDS011;880;52.452;8.656;2022-09-06T10:56:09;9.40;;;8.60;;
1765;SDS011;880;52.452;8.656;2022-09-06T10:58:51;8.70;;;8.13;;
1765;SDS011;880;52.452;8.656;2022-09-06T11:01:56;8.30;;;7.70;;
1765;SDS011;880;52.452;8.656;2022-09-06T11:04:36;8.20;;;7.53;;
1765;SDS011;880;52.452;8.656;2022-09-06T11:10:05;8.80;;;8.10;;
1765;SDS011;880;52.452;8.656;2022-09-06T11:12:48;7.93;;;7.43;;
1765;SDS011;880;52.452;8.656;2022-09-06T11:15:26;8.10;;;7.60;;
1765;SDS011;880;52.452;8.656;2022-09-06T11:18:04;10.60;;;8.73;;
1765;SDS011;880;52.452;8.656;2022-09-06T11:21:26;8.47;;;7.77;;
1765;SDS011;880;52.452;8.656;2022-09-06T11:24:11;8.20;;;7.50;;
1765;SDS011;880;52.452;8.656;2022-09-06T11:26:42;8.00;;;7.33;;
1765;SDS011;880;52.452;8.656;2022-09-06T11:29:32;8.90;;;8.30;;
1765;SDS011;880;52.452;8.656;2022-09-06T11:32:00;8.33;;;7.83;;
1765;SDS011;880;52.452;8.656;2022-09-06T11:34:52;9.30;;;8.50;;
1765;SDS011;880;52.452;8.656;2022-09-06T11:37:26;8.70;;;7.90;;
1765;SDS011;880;52.452;8.656;2022-09-06T11:45:21;7.80;;;7.20;;
1765;SDS011;880;52.452;8.656;2022-09-06T11:50:59;9.53;;;8.37;;
1765;SDS011;880;52.452;8.656;2022-09-06T11:53:29;8.80;;;8.00;;
1765;SDS011;880;52.452;8.656;2022-09-06T12:06:44;7.97;;;7.13;;
1765;SDS011;880;52.452;8.656;2022-09-06T12:09:41;8.30;;;7.70;;
1765;SDS011;880;52.452;8.656;2022-09-06T12:12:09;7.80;;;7.30;;
1765;SDS011;880;52.452;8.656;2022-09-06T12:14:42;12.27;;;7.17;;
1765;SDS011;880;52.452;8.656;2022-09-06T12:17:18;8.90;;;7.80;;
1765;SDS011;880;52.452;8.656;2022-09-06T12:19:47;7.83;;;7.23;;
1765;SDS011;880;52.452;8.656;2022-09-06T12:25:02;8.07;;;7.47;;
1765;SDS011;880;52.452;8.656;2022-09-06T12:32:41;8.37;;;7.00;;
1765;SDS011;880;52.452;8.656;2022-09-06T12:35:15;8.53;;;7.70;;
1765;SDS011;880;52.452;8.656;2022-09-06T12:38:12;8.47;;;7.87;;
1765;SDS011;880;52.452;8.656;2022-09-06T12:40:44;8.03;;;7.40;;
1765;SDS011;880;52.452;8.656;2022-09-06T12:43:15;7.40;;;6.70;;
1765;SDS011;880;52.452;8.656;2022-09-06T12:45:43;7.97;;;7.37;;
1765;SDS011;880;52.452;8.656;2022-09-06T12:48:26;7.80;;;7.10;;
1765;SDS011;880;52.452;8.656;2022-09-06T12:51:07;7.70;;;7.30;;
1765;SDS011;880;52.452;8.656;2022-09-06T12:53:51;8.33;;;7.53;;
1765;SDS011;880;52.452;8.656;2022-09-06T12:56:23;7.20;;;6.30;;
1765;SDS011;880;52.452;8.656;2022-09-06T12:58:52;7.97;;;7.27;;
1765;SDS011;880;52.452;8.656;2022-09-06T13:01:40;7.83;;;7.10;;
1765;SDS011;880;52.452;8.656;2022-09-06T13:04:20;9.10;;;7.40;;
1765;SDS011;880;52.452;8.656;2022-09-06T13:07:13;7.57;;;6.97;;
1765;SDS011;880;52.452;8.656;2022-09-06T13:09:44;7.07;;;6.57;;
1765;SDS011;880;52.452;8.656;2022-09-06T13:12:17;6.77;;;6.27;;
1765;SDS011;880;52.452;8.656;2022-09-06T13:15:01;7.80;;;7.13;;
1765;SDS011;880;52.452;8.656;2022-09-06T13:17:37;7.03;;;6.63;;
1765;SDS011;880;52.452;8.656;2022-09-06T13:22:49;7.90;;;7.30;;
1765;SDS011;880;52.452;8.656;2022-09-06T13:27:48;7.00;;;6.40;;
1765;SDS011;880;52.452;8.656;2022-09-06T13:33:04;6.93;;;6.37;;
1765;SDS011;880;52.452;8.656;2022-09-06T13:35:35;9.87;;;7.70;;
1765;SDS011;880;52.452;8.656;2022-09-06T13:38:19;7.10;;;6.60;;
1765;SDS011;880;52.452;8.656;2022-09-06T13:40:59;6.07;;;5.57;;
1765;SDS011;880;52.452;8.656;2022-09-06T13:43:43;7.70;;;6.60;;
1765;SDS011;880;52.452;8.656;2022-09-06T13:46:13;7.10;;;6.60;;
1765;SDS011;880;52.452;8.656;2022-09-06T13:48:40;6.70;;;6.30;;
1765;SDS011;880;52.452;8.656;2022-09-06T13:51:10;7.73;;;7.00;;
1765;SDS011;880;52.452;8.656;2022-09-06T13:53:37;7.50;;;6.73;;
1765;SDS011;880;52.452;8.656;2022-09-06T13:56:04;8.40;;;6.90;;
1765;SDS011;880;52.452;8.656;2022-09-06T13:58:34;6.80;;;6.30;;
1765;SDS011;880;52.452;8.656;2022-09-06T14:01:02;6.77;;;6.17;;
1765;SDS011;880;52.452;8.656;2022-09-06T14:03:34;6.33;;;5.80;;
1765;SDS011;880;52.452;8.656;2022-09-06T14:06:08;7.90;;;7.10;;
1765;SDS011;880;52.452;8.656;2022-09-06T14:08:35;7.10;;;6.50;;
1765;SDS011;880;52.452;8.656;2022-09-06T14:11:24;6.40;;;6.00;;
1765;SDS011;880;52.452;8.656;2022-09-06T14:13:52;8.30;;;6.30;;
1765;SDS011;880;52.452;8.656;2022-09-06T14:16:19;12.17;;;7.17;;
1765;SDS011;880;52.452;8.656;2022-09-06T14:18:46;6.70;;;6.20;;
1765;SDS011;880;52.452;8.656;2022-09-06T14:21:14;6.97;;;6.40;;
1765;SDS011;880;52.452;8.656;2022-09-06T14:23:41;8.07;;;6.30;;
1765;SDS011;880;52.452;8.656;2022-09-06T14:26:09;7.67;;;6.93;;
1765;SDS011;880;52.452;8.656;2022-09-06T14:28:38;7.20;;;6.50;;
1765;SDS011;880;52.452;8.656;2022-09-06T14:31:12;7.23;;;6.40;;
1765;SDS011;880;52.452;8.656;2022-09-06T14:33:46;6.50;;;6.10;;
1765;SDS011;880;52.452;8.656;2022-09-06T14:36:15;7.07;;;6.50;;
1765;SDS011;880;52.452;8.656;2022-09-06T14:38:46;7.57;;;6.20;;
1765;SDS011;880;52.452;8.656;2022-09-06T14:41:14;9.10;;;7.13;;
1765;SDS011;880;52.452;8.656;2022-09-06T14:43:47;7.70;;;7.10;;
1765;SDS011;880;52.452;8.656;2022-09-06T14:46:17;7.87;;;6.17;;
1765;SDS011;880;52.452;8.656;2022-09-06T14:48:46;12.60;;;5.87;;
1765;SDS011;880;52.452;8.656;2022-09-06T14:51:15;6.40;;;5.90;;
1765;SDS011;880;52.452;8.656;2022-09-06T14:53:48;6.77;;;6.23;;
1765;SDS011;880;52.452;8.656;2022-09-06T14:56:19;8.60;;;6.70;;
1765;SDS011;880;52.452;8.656;2022-09-06T14:58:48;7.13;;;6.00;;
1765;SDS011;880;52.452;8.656;2022-09-06T15:01:16;6.77;;;6.17;;
1765;SDS011;880;52.452;8.656;2022-09-06T15:03:53;7.50;;;5.43;;
1765;SDS011;880;52.452;8.656;2022-09-06T15:06:24;7.70;;;6.90;;
1765;SDS011;880;52.452;8.656;2022-09-06T15:08:53;6.63;;;5.97;;
1765;SDS011;880;52.452;8.656;2022-09-06T15:14:04;6.23;;;5.63;;
1765;SDS011;880;52.452;8.656;2022-09-06T15:16:36;6.80;;;6.27;;
1765;SDS011;880;52.452;8.656;2022-09-06T15:19:03;6.47;;;5.80;;
1765;SDS011;880;52.452;8.656;2022-09-06T15:21:31;6.33;;;5.83;;
1765;SDS011;880;52.452;8.656;2022-09-06T15:23:58;6.63;;;5.93;;
1765;SDS011;880;52.452;8.656;2022-09-06T15:26:27;7.53;;;6.00;;
1765;SDS011;880;52.452;8.656;2022-09-06T15:28:55;9.30;;;6.07;;
1765;SDS011;880;52.452;8.656;2022-09-06T15:31:22;6.60;;;5.80;;
1765;SDS011;880;52.452;8.656;2022-09-06T15:33:50;9.00;;;6.07;;
1765;SDS011;880;52.452;8.656;2022-09-06T15:36:18;7.43;;;6.83;;
1765;SDS011;880;52.452;8.656;2022-09-06T15:38:46;10.03;;;6.80;;
1765;SDS011;880;52.452;8.656;2022-09-06T15:41:16;6.50;;;5.90;;
1765;SDS011;880;52.452;8.656;2022-09-06T15:43:53;6.33;;;5.83;;
1765;SDS011;880;52.452;8.656;2022-09-06T15:49:14;7.60;;;6.57;;
1765;SDS011;880;52.452;8.656;2022-09-06T15:51:53;7.70;;;6.73;;
1765;SDS011;880;52.452;8.656;2022-09-06T15:54:22;7.77;;;6.10;;
1765;SDS011;880;52.452;8.656;2022-09-06T15:57:09;7.77;;;6.10;;
1765;SDS011;880;52.452;8.656;2022-09-06T15:59:38;6.27;;;5.77;;
1765;SDS011;880;52.452;8.656;2022-09-06T16:02:06;7.20;;;6.50;;
1765;SDS011;880;52.452;8.656;2022-09-06T16:04:34;6.83;;;6.20;;
1765;SDS011;880;52.452;8.656;2022-09-06T16:07:01;7.90;;;5.90;;
1765;SDS011;880;52.452;8.656;2022-09-06T16:09:29;6.87;;;6.17;;
1765;SDS011;880;52.452;8.656;2022-09-06T16:11:56;6.60;;;6.10;;
1765;SDS011;880;52.452;8.656;2022-09-06T16:14:23;6.60;;;5.97;;
1765;SDS011;880;52.452;8.656;2022-09-06T16:16:51;7.97;;;6.20;;
1765;SDS011;880;52.452;8.656;2022-09-06T16:19:20;8.47;;;6.20;;
1765;SDS011;880;52.452;8.656;2022-09-06T16:21:47;6.97;;;6.47;;
1765;SDS011;880;52.452;8.656;2022-09-06T16:24:14;8.30;;;6.73;;
1765;SDS011;880;52.452;8.656;2022-09-06T16:26:44;7.17;;;6.47;;
1765;SDS011;880;52.452;8.656;2022-09-06T16:29:13;7.33;;;6.43;;
1765;SDS011;880;52.452;8.656;2022-09-06T16:31:43;6.80;;;6.00;;
1765;SDS011;880;52.452;8.656;2022-09-06T16:34:12;9.30;;;6.40;;
1765;SDS011;880;52.452;8.656;2022-09-06T16:36:39;9.90;;;6.40;;
1765;SDS011;880;52.452;8.656;2022-09-06T16:39:06;6.77;;;6.20;;
1765;SDS011;880;52.452;8.656;2022-09-06T16:41:44;10.07;;;6.67;;
1765;SDS011;880;52.452;8.656;2022-09-06T16:44:13;6.97;;;6.10;;
1765;SDS011;880;52.452;8.656;2022-09-06T16:46:43;7.47;;;6.53;;
1765;SDS011;880;52.452;8.656;2022-09-06T16:49:12;7.93;;;7.33;;
1765;SDS011;880;52.452;8.656;2022-09-06T16:51:45;7.40;;;6.63;;
1765;SDS011;880;52.452;8.656;2022-09-06T16:54:13;14.40;;;7.93;;
1765;SDS011;880;52.452;8.656;2022-09-06T16:56:41;6.60;;;6.10;;
1765;SDS011;880;52.452;8.656;2022-09-06T16:59:09;10.30;;;7.20;;
1765;SDS011;880;52.452;8.656;2022-09-06T17:01:38;8.13;;;7.37;;
1765;SDS011;880;52.452;8.656;2022-09-06T17:04:10;7.77;;;7.03;;
1765;SDS011;880;52.452;8.656;2022-09-06T17:06:38;8.77;;;6.60;;
1765;SDS011;880;52.452;8.656;2022-09-06T17:09:13;12.63;;;6.93;;
1765;SDS011;880;52.452;8.656;2022-09-06T17:11:45;7.70;;;6.10;;
1765;SDS011;880;52.452;8.656;2022-09-06T17:14:15;6.63;;;6.10;;
1765;SDS011;880;52.452;8.656;2022-09-06T17:16:43;8.30;;;7.13;;
1765;SDS011;880;52.452;8.656;2022-09-06T17:19:35;7.13;;;6.53;;
1765;SDS011;880;52.452;8.656;2022-09-06T17:22:06;7.27;;;6.07;;
1765;SDS011;880;52.452;8.656;2022-09-06T17:24:36;6.57;;;5.97;;
1765;SDS011;880;52.452;8.656;2022-09-06T17:27:04;7.87;;;6.37;;
1765;SDS011;880;52.452;8.656;2022-09-06T17:29:31;9.30;;;6.30;;
1765;SDS011;880;52.452;8.656;2022-09-06T17:31:59;7.30;;;5.63;;